Time;durP1;ratioP1;P1;durP2;ratioP2;P2;SDS_P1;SDS_P2;PMS_P1;PMS_P2;Temp;Humidity;BMP_temperature;BMP_pressure;BME280_temperature;BME280_humidity;BME280_pressure;Samples;Min_cycle;Max_cycle;Signal;HPM_P1;HPM_P2
2022/02/22 00:01:31;;;;;;;2.10;1.15;;;26.90;66.40;;;;;;5163974;22;20015;-67
2022/02/22 00:03:53;;;;;;;2.50;0.68;;;26.90;66.30;;;;;;5164169;22;20079;-64
2022/02/22 00:06:15;;;;;;;2.90;0.80;;;26.90;66.30;;;;;;5157353;22;20007;-65
2022/02/22 00:08:38;;;;;;;1.15;0.80;;;26.90;66.20;;;;;;5158584;22;20015;-63
2022/02/22 00:11:04;;;;;;;2.55;1.08;;;26.90;66.20;;;;;;5163131;22;20393;-66
2022/02/22 00:13:27;;;;;;;2.78;1.25;;;26.90;66.20;;;;;;5154321;22;20023;-67
2022/02/22 00:15:50;;;;;;;3.03;1.35;;;26.90;66.00;;;;;;5153477;22;20110;-68
2022/02/22 00:18:12;;;;;;;2.53;1.13;;;26.90;66.00;;;;;;5159364;22;20027;-71
2022/02/22 00:20:35;;;;;;;1.52;0.90;;;26.90;66.10;;;;;;5156632;22;20011;-67
2022/02/22 00:22:57;;;;;;;3.00;0.90;;;27.00;66.20;;;;;;5152790;22;20030;-68
2022/02/22 00:25:20;;;;;;;2.92;1.48;;;27.00;66.00;;;;;;5156653;22;20325;-69
2022/02/22 00:27:44;;;;;;;2.15;1.20;;;27.00;66.10;;;;;;5152169;22;20026;-65
2022/02/22 00:30:08;;;;;;;4.13;1.10;;;27.00;66.00;;;;;;5152366;22;20112;-64
2022/02/22 00:32:29;;;;;;;;;;;27.00;66.10;;;;;;5157029;22;20019;-70
2022/02/22 00:34:52;;;;;;;3.63;0.90;;;27.00;66.10;;;;;;5150955;22;20854;-66
2022/02/22 00:37:14;;;;;;;3.03;0.93;;;27.00;66.10;;;;;;5152640;22;20844;-69
2022/02/22 00:39:37;;;;;;;2.45;1.15;;;27.00;66.00;;;;;;5158875;22;20015;-69
2022/02/22 00:42:00;;;;;;;4.25;1.15;;;27.00;66.00;;;;;;5154576;22;20068;-66
2022/02/22 00:44:23;;;;;;;1.70;1.00;;;27.00;66.10;;;;;;5153199;22;20025;-67
2022/02/22 00:46:47;;;;;;;;;;;27.00;66.00;;;;;;5157136;22;20015;-67
2022/02/22 00:49:10;;;;;;;3.90;0.77;;;27.00;66.00;;;;;;5143713;22;19906;-67
2022/02/22 00:51:43;;;;;;;1.13;0.70;;;27.00;66.00;;;;;;5154506;22;20349;-68
2022/02/22 00:54:05;;;;;;;2.63;0.93;;;27.00;66.00;;;;;;5154613;22;20457;-72
2022/02/22 00:56:28;;;;;;;2.00;1.15;;;27.00;66.00;;;;;;5149384;22;20018;-66
2022/02/22 00:58:51;;;;;;;2.55;1.25;;;27.00;66.00;;;;;;5160537;22;20019;-65
2022/02/22 01:01:17;;;;;;;1.90;1.02;;;27.00;65.90;;;;;;5150682;22;20072;-69
2022/02/22 01:03:40;;;;;;;6.50;1.83;;;27.00;66.00;;;;;;5151628;22;20011;-73
2022/02/22 01:06:02;;;;;;;3.97;1.23;;;27.00;65.40;;;;;;5163560;22;20053;-74
2022/02/22 01:08:25;;;;;;;3.72;1.33;;;27.00;66.20;;;;;;5159397;22;20203;-71
2022/02/22 01:10:47;;;;;;;3.22;1.20;;;27.00;66.20;;;;;;5158915;22;20019;-75
2022/02/22 01:13:10;;;;;;;4.13;1.33;;;27.00;65.70;;;;;;5167485;22;20085;-77
2022/02/22 01:15:33;;;;;;;3.67;1.17;;;27.00;66.20;;;;;;5159957;22;20054;-73
2022/02/22 01:17:56;;;;;;;3.05;1.38;;;27.00;66.10;;;;;;5160290;22;20102;-71
2022/02/22 01:20:18;;;;;;;2.45;1.20;;;27.00;66.00;;;;;;5133691;22;20258;-67
2022/02/22 01:22:42;;;;;;;3.20;1.10;;;27.00;66.00;;;;;;5159339;22;20331;-75
2022/02/22 01:25:05;;;;;;;2.08;0.90;;;27.00;65.90;;;;;;5156489;22;20015;-77
2022/02/22 01:27:27;;;;;;;;;;;27.10;66.00;;;;;;5132887;22;20016;-70
2022/02/22 01:29:50;;;;;;;1.08;0.70;;;27.10;66.00;;;;;;5129160;22;19911;-72
2022/02/22 01:32:13;;;;;;;2.42;0.85;;;27.10;66.00;;;;;;5157888;22;20046;-78
2022/02/22 01:34:35;;;;;;;1.58;0.80;;;27.10;66.00;;;;;;5165487;22;20094;-74
2022/02/22 01:36:58;;;;;;;2.40;0.98;;;27.10;66.00;;;;;;5156019;22;20470;-71
2022/02/22 01:39:21;;;;;;;1.83;0.82;;;27.10;66.00;;;;;;5159487;22;20027;-73
2022/02/22 01:41:46;;;;;;;2.15;0.90;;;27.10;66.00;;;;;;5130891;22;20008;-67
2022/02/22 01:44:08;;;;;;;8.48;1.30;;;27.10;66.00;;;;;;5158070;22;20103;-75
2022/02/22 01:46:31;;;;;;;2.40;0.90;;;27.10;66.00;;;;;;5126781;22;20015;-73
2022/02/22 01:48:53;;;;;;;2.22;1.00;;;27.10;66.10;;;;;;5161351;22;20011;-70
2022/02/22 01:51:16;;;;;;;2.33;1.00;;;27.10;66.00;;;;;;5158511;22;20370;-71
2022/02/22 01:53:38;;;;;;;1.35;0.80;;;27.10;65.90;;;;;;5157540;22;20575;-73
2022/02/22 01:56:07;;;;;;;5.95;1.35;;;27.10;66.00;;;;;;5166099;22;20019;-70
2022/02/22 01:58:30;;;;;;;2.97;1.27;;;27.10;66.00;;;;;;5165193;22;20082;-71
2022/02/22 02:00:53;;;;;;;4.10;0.90;;;27.10;66.00;;;;;;5156958;22;20007;-72
2022/02/22 02:03:16;;;;;;;1.80;1.00;;;27.10;66.10;;;;;;5163161;22;20126;-69
2022/02/22 02:05:39;;;;;;;1.90;0.80;;;27.10;66.10;;;;;;5156438;22;20022;-69
2022/02/22 02:08:01;;;;;;;2.45;1.00;;;27.10;66.10;;;;;;5151345;22;20300;-66
2022/02/22 02:10:24;;;;;;;2.28;0.70;;;27.10;66.20;;;;;;5163003;22;20019;-69
2022/02/22 02:12:46;;;;;;;4.22;0.90;;;27.10;66.40;;;;;;5160004;22;20438;-74
2022/02/22 02:15:10;;;;;;;2.05;1.00;;;27.10;66.80;;;;;;5128486;22;20070;-73
2022/02/22 02:17:34;;;;;;;2.13;1.25;;;27.10;67.00;;;;;;5161525;22;20506;-70
2022/02/22 02:19:57;;;;;;;2.90;1.20;;;27.10;66.60;;;;;;5123379;22;20039;-71
2022/02/22 02:22:19;;;;;;;2.15;0.93;;;27.10;66.40;;;;;;5151525;22;20489;-72
2022/02/22 02:24:42;;;;;;;1.60;0.82;;;27.10;66.20;;;;;;5166440;22;20117;-72
2022/02/22 02:27:04;;;;;;;2.33;0.82;;;27.00;66.00;;;;;;5157625;22;20077;-72
2022/02/22 02:29:28;;;;;;;2.35;0.93;;;27.00;66.00;;;;;;5158123;22;20401;-73
2022/02/22 02:31:52;;;;;;;2.10;1.10;;;27.00;65.90;;;;;;5168029;22;20019;-71
2022/02/22 02:34:18;;;;;;;2.67;1.17;;;27.00;65.70;;;;;;5166939;22;20265;-82
2022/02/22 02:36:43;;;;;;;4.82;1.10;;;26.90;65.80;;;;;;5146099;22;20059;-72
2022/02/22 02:39:08;;;;;;;3.80;1.00;;;26.90;66.00;;;;;;5170255;22;20042;-77
2022/02/22 02:41:31;;;;;;;1.92;1.00;;;26.90;66.00;;;;;;5136144;22;20804;-70
2022/02/22 02:43:53;;;;;;;1.55;0.60;;;26.90;66.00;;;;;;5174208;22;20045;-77
2022/02/22 02:46:16;;;;;;;2.10;0.90;;;26.90;66.00;;;;;;5172256;22;20832;-73
2022/02/22 02:48:38;;;;;;;1.92;0.90;;;26.90;66.00;;;;;;5172184;22;20033;-72
2022/02/22 02:51:01;;;;;;;2.60;0.90;;;26.90;66.00;;;;;;5142276;22;20008;-72
2022/02/22 02:53:23;;;;;;;1.70;0.90;;;26.90;66.00;;;;;;5174837;22;20015;-67
2022/02/22 02:55:45;;;;;;;2.10;0.93;;;26.90;66.00;;;;;;5156348;22;20034;-76
2022/02/22 02:58:08;;;;;;;2.25;0.95;;;26.90;65.90;;;;;;5168966;22;20395;-70
2022/02/22 03:00:31;;;;;;;1.75;0.90;;;27.00;66.00;;;;;;5174083;22;20092;-70
2022/02/22 03:02:53;;;;;;;2.20;0.93;;;26.90;65.90;;;;;;5171031;22;20021;-68
2022/02/22 03:05:16;;;;;;;1.38;1.00;;;26.90;65.80;;;;;;5140660;22;20050;-66
2022/02/22 03:07:38;;;;;;;4.95;1.05;;;26.90;65.90;;;;;;5174669;22;20015;-68
2022/02/22 03:10:01;;;;;;;3.25;1.00;;;26.90;66.00;;;;;;5172056;22;20025;-67
2022/02/22 03:12:23;;;;;;;3.22;0.77;;;27.00;65.90;;;;;;5168687;22;20340;-69
2022/02/22 03:14:48;;;;;;;4.65;1.08;;;26.90;65.80;;;;;;5143258;22;20455;-71
2022/02/22 03:17:10;;;;;;;4.38;1.60;;;26.90;65.70;;;;;;5171138;22;20011;-71
2022/02/22 03:19:32;;;;;;;5.05;2.08;;;26.90;65.30;;;;;;5169947;22;21039;-71
2022/02/22 03:21:55;;;;;;;4.30;2.08;;;26.90;65.30;;;;;;5178812;22;20019;-68
2022/02/22 03:24:17;;;;;;;6.82;2.22;;;26.80;65.30;;;;;;5170422;22;20011;-71
2022/02/22 03:26:40;;;;;;;3.55;1.92;;;26.80;66.10;;;;;;5172262;22;20026;-71
2022/02/22 03:29:03;;;;;;;5.38;2.30;;;26.80;66.00;;;;;;5178044;22;20439;-73
2022/02/22 03:31:26;;;;;;;6.07;2.00;;;26.80;66.00;;;;;;5171310;22;20046;-73
2022/02/22 03:33:52;;;;;;;7.05;2.17;;;26.80;65.90;;;;;;5172669;22;20084;-71
2022/02/22 03:36:15;;;;;;;3.65;1.52;;;26.70;66.10;;;;;;5176427;22;20019;-70
2022/02/22 03:38:37;;;;;;;5.70;2.05;;;26.70;66.20;;;;;;5173022;22;20365;-71
2022/02/22 03:41:02;;;;;;;6.57;1.55;;;26.70;66.40;;;;;;5175012;22;20022;-71
2022/02/22 03:43:25;;;;;;;3.47;1.50;;;26.70;66.50;;;;;;5186551;22;20043;-72
2022/02/22 03:45:47;;;;;;;3.60;1.17;;;26.70;66.50;;;;;;5178001;22;20011;-67
2022/02/22 03:48:10;;;;;;;4.13;1.50;;;26.70;66.40;;;;;;5176866;22;20022;-74
2022/02/22 03:50:32;;;;;;;5.18;1.40;;;26.70;66.40;;;;;;5179364;22;20015;-72
2022/02/22 03:52:55;;;;;;;2.70;1.15;;;26.70;66.40;;;;;;5171692;22;20022;-75
2022/02/22 03:55:19;;;;;;;2.78;1.23;;;26.70;66.30;;;;;;5181300;22;20045;-69
2022/02/22 03:57:42;;;;;;;1.73;1.13;;;26.70;66.30;;;;;;5192463;22;20045;-74
2022/02/22 04:00:21;;;;;;;2.67;1.10;;;26.80;66.40;;;;;;5192861;22;20019;-73
2022/02/22 04:06:02;;;;;;;2.97;1.17;;;26.70;66.40;;;;;;5193393;22;20082;-69
2022/02/22 04:08:24;;;;;;;3.72;1.25;;;26.70;66.40;;;;;;5187453;22;20017;-67
2022/02/22 04:14:04;;;;;;;1.77;0.95;;;26.70;66.50;;;;;;5159666;22;20185;-74
2022/02/22 04:16:52;;;;;;;2.60;1.10;;;26.70;66.60;;;;;;5148869;22;20018;-74
2022/02/22 04:19:18;;;;;;;1.92;0.65;;;26.70;66.70;;;;;;5162127;22;20481;-69
2022/02/22 04:21:44;;;;;;;5.30;1.15;;;26.70;66.60;;;;;;5159958;22;21000;-72
2022/02/22 04:24:44;;;;;;;1.60;0.82;;;26.70;66.70;;;;;;5161083;22;20018;-73
2022/02/22 04:27:07;;;;;;;2.13;0.80;;;26.70;66.70;;;;;;5120347;22;20012;-77
2022/02/22 04:29:29;;;;;;;3.13;0.98;;;26.70;66.70;;;;;;5150603;22;20364;-79
2022/02/22 04:31:56;;;;;;;3.85;1.00;;;26.70;66.70;;;;;;5143381;22;20422;-74
2022/02/22 04:34:19;;;;;;;2.42;1.08;;;26.70;66.90;;;;;;5150301;22;20011;-72
2022/02/22 04:36:42;;;;;;;2.67;0.90;;;26.70;67.20;;;;;;5147513;22;20438;-70
2022/02/22 04:39:06;;;;;;;1.67;0.80;;;26.70;67.20;;;;;;5114094;22;20058;-76
2022/02/22 04:41:29;;;;;;;1.83;0.95;;;26.70;67.20;;;;;;5149973;22;20011;-70
2022/02/22 04:43:51;;;;;;;3.15;1.13;;;26.70;67.20;;;;;;5150905;22;20157;-75
2022/02/22 04:46:14;;;;;;;3.13;0.80;;;26.70;67.30;;;;;;5155634;22;20046;-72
2022/02/22 04:48:37;;;;;;;3.00;0.90;;;26.70;67.90;;;;;;5147800;22;20126;-73
2022/02/22 04:51:00;;;;;;;2.88;0.80;;;26.70;67.40;;;;;;5157246;22;20084;-72
2022/02/22 04:53:23;;;;;;;2.63;0.88;;;26.70;68.00;;;;;;5133090;22;20019;-73
2022/02/22 04:55:46;;;;;;;2.97;0.80;;;26.70;67.40;;;;;;5155430;22;20083;-70
2022/02/22 04:58:08;;;;;;;3.45;1.40;;;26.70;67.30;;;;;;5159032;22;20026;-69
2022/02/22 05:00:31;;;;;;;2.05;0.82;;;26.80;67.40;;;;;;5160437;22;20394;-76
2022/02/22 05:02:54;;;;;;;2.27;0.90;;;26.80;67.40;;;;;;5155002;22;20023;-74
2022/02/22 05:05:16;;;;;;;2.22;1.10;;;26.70;67.40;;;;;;5164502;22;20240;-73
2022/02/22 05:07:43;;;;;;;3.60;0.80;;;26.80;67.50;;;;;;5164709;22;20015;-74
2022/02/22 05:10:07;;;;;;;1.98;0.88;;;26.70;67.50;;;;;;5128714;22;20020;-74
2022/02/22 05:12:29;;;;;;;5.40;1.17;;;26.80;67.60;;;;;;5131359;22;20019;-73
2022/02/22 05:14:56;;;;;;;4.13;0.85;;;26.80;67.70;;;;;;5171038;22;20042;-71
2022/02/22 05:17:18;;;;;;;3.33;0.95;;;26.80;67.70;;;;;;5157392;22;20344;-72
2022/02/22 05:19:40;;;;;;;2.63;0.90;;;26.80;67.90;;;;;;5157118;22;20073;-73
2022/02/22 05:22:03;;;;;;;5.00;1.10;;;26.80;67.90;;;;;;5149505;22;20073;-73
2022/02/22 05:24:26;;;;;;;2.70;1.00;;;26.80;67.90;;;;;;5153844;22;20079;-74
2022/02/22 05:26:48;;;;;;;4.75;1.67;;;26.80;67.90;;;;;;5156883;22;20039;-69
2022/02/22 05:29:11;;;;;;;2.97;1.85;;;26.80;68.00;;;;;;5120024;22;20051;-73
2022/02/22 05:31:33;;;;;;;5.95;2.70;;;26.80;68.00;;;;;;5152263;22;20022;-67
2022/02/22 05:33:57;;;;;;;6.47;3.00;;;26.80;68.10;;;;;;5157447;22;20061;-72
2022/02/22 05:36:20;;;;;;;6.88;3.30;;;26.80;68.20;;;;;;5151760;22;20585;-71
2022/02/22 05:38:43;;;;;;;7.72;2.92;;;26.80;68.30;;;;;;5122543;22;20027;-67
2022/02/22 05:41:05;;;;;;;5.72;2.60;;;26.80;68.20;;;;;;5156525;22;20153;-69
2022/02/22 05:43:28;;;;;;;4.80;2.40;;;26.80;68.30;;;;;;5150088;22;20015;-69
2022/02/22 05:45:52;;;;;;;4.97;1.97;;;26.80;68.30;;;;;;5148402;22;20068;-72
2022/02/22 05:48:14;;;;;;;7.95;2.85;;;26.80;68.30;;;;;;5153342;22;20824;-71
2022/02/22 05:50:38;;;;;;;7.82;2.22;;;26.80;68.30;;;;;;5149926;22;20016;-73
2022/02/22 05:53:01;;;;;;;3.28;1.52;;;26.80;68.30;;;;;;5149135;22;20019;-71
2022/02/22 05:55:27;;;;;;;4.07;1.83;;;26.80;68.40;;;;;;5158679;22;20554;-73
2022/02/22 05:57:50;;;;;;;4.70;2.22;;;26.80;68.40;;;;;;5148392;22;20964;-76
2022/02/22 06:00:13;;;;;;;2.45;1.38;;;26.80;68.40;;;;;;5151558;22;20521;-72
2022/02/22 06:02:36;;;;;;;3.60;1.50;;;26.80;68.50;;;;;;5157471;22;20713;-71
2022/02/22 06:04:59;;;;;;;2.40;1.27;;;26.80;68.50;;;;;;5150902;22;20023;-69
2022/02/22 06:07:22;;;;;;;2.38;1.23;;;26.80;68.50;;;;;;5152171;22;20015;-71
2022/02/22 06:09:44;;;;;;;3.03;1.13;;;26.80;68.50;;;;;;5159163;22;20019;-72
2022/02/22 06:12:08;;;;;;;3.05;1.60;;;26.80;68.40;;;;;;5152484;22;20623;-75
2022/02/22 06:14:30;;;;;;;3.55;1.40;;;26.80;68.40;;;;;;5150335;22;20296;-69
2022/02/22 06:16:54;;;;;;;4.50;1.20;;;26.80;68.50;;;;;;5156494;22;20015;-68
2022/02/22 06:19:17;;;;;;;4.35;1.20;;;26.80;68.30;;;;;;5148222;22;20027;-69
2022/02/22 06:21:39;;;;;;;3.15;1.02;;;26.80;68.40;;;;;;5151428;22;20205;-75
2022/02/22 06:24:02;;;;;;;3.92;0.95;;;26.80;68.50;;;;;;5159166;22;20027;-71
2022/02/22 06:26:25;;;;;;;3.67;0.88;;;26.80;68.40;;;;;;5117941;22;21021;-71
2022/02/22 06:28:47;;;;;;;1.92;1.00;;;26.80;68.50;;;;;;5152251;22;20022;-72
2022/02/22 06:31:10;;;;;;;2.27;0.60;;;26.90;68.30;;;;;;5159302;22;20156;-72
2022/02/22 06:33:35;;;;;;;8.43;1.27;;;26.80;68.10;;;;;;5152409;22;20311;-71
2022/02/22 06:35:58;;;;;;;4.32;0.88;;;26.80;68.60;;;;;;5151058;22;20019;-75
2022/02/22 06:38:21;;;;;;;3.80;0.70;;;26.80;68.80;;;;;;5158358;22;20447;-73
2022/02/22 06:40:43;;;;;;;5.57;1.08;;;26.80;68.50;;;;;;5117646;22;20202;-74
2022/02/22 06:43:06;;;;;;;2.10;0.60;;;26.80;68.60;;;;;;5150412;22;20165;-75
2022/02/22 06:45:29;;;;;;;1.98;0.50;;;26.80;68.50;;;;;;5158267;22;20432;-74
2022/02/22 06:47:51;;;;;;;1.15;0.75;;;26.80;68.30;;;;;;5124656;22;20019;-73
2022/02/22 06:50:15;;;;;;;0.80;0.75;;;26.70;68.20;;;;;;5159234;22;20098;-73
2022/02/22 06:52:39;;;;;;;0.77;0.47;;;26.70;68.20;;;;;;5133156;22;20022;-72
2022/02/22 06:55:05;;;;;;;1.08;0.60;;;26.70;68.50;;;;;;5162887;22;20125;-74
2022/02/22 06:57:27;;;;;;;2.08;0.50;;;26.70;68.00;;;;;;5165116;22;20065;-73
2022/02/22 06:59:50;;;;;;;2.75;0.60;;;26.70;67.90;;;;;;5168936;22;20015;-73
2022/02/22 07:02:12;;;;;;;1.55;0.65;;;26.70;67.90;;;;;;5131390;22;20007;-73
2022/02/22 07:04:35;;;;;;;1.02;0.60;;;26.70;67.90;;;;;;5161489;22;20015;-73
2022/02/22 07:06:59;;;;;;;0.82;0.55;;;26.70;67.80;;;;;;5161556;22;20871;-71
2022/02/22 07:09:22;;;;;;;1.48;0.55;;;26.70;67.80;;;;;;5165371;22;20559;-72
2022/02/22 07:11:44;;;;;;;0.60;0.45;;;26.60;67.70;;;;;;5165164;22;20015;-73
2022/02/22 07:14:07;;;;;;;1.20;0.52;;;26.60;67.70;;;;;;5174985;22;20053;-73
2022/02/22 07:16:29;;;;;;;2.78;0.73;;;26.60;67.70;;;;;;5162588;22;20015;-71
2022/02/22 07:18:52;;;;;;;3.97;0.77;;;26.60;67.70;;;;;;5154772;22;20487;-73
2022/02/22 07:21:14;;;;;;;2.63;0.80;;;26.60;67.70;;;;;;5162751;22;20011;-72
2022/02/22 07:23:37;;;;;;;0.93;0.30;;;26.60;67.70;;;;;;5158534;22;20238;-71
2022/02/22 07:25:59;;;;;;;1.85;0.50;;;26.60;67.70;;;;;;5159282;22;20661;-72
2022/02/22 07:28:22;;;;;;;1.13;0.52;;;26.60;67.70;;;;;;5164021;22;20011;-72
2022/02/22 07:30:49;;;;;;;0.52;0.30;;;26.60;67.70;;;;;;5164090;22;20011;-72
2022/02/22 07:33:21;;;;;;;1.05;0.50;;;26.60;67.70;;;;;;5130697;22;20537;-72
2022/02/22 07:35:43;;;;;;;0.40;0.40;;;26.60;67.70;;;;;;5129027;22;20015;-72
2022/02/22 07:38:06;;;;;;;1.08;0.40;;;26.60;67.70;;;;;;5154644;22;20061;-71
2022/02/22 07:40:29;;;;;;;2.22;0.47;;;26.50;67.70;;;;;;5162286;22;20015;-71
2022/02/22 07:42:53;;;;;;;1.23;0.40;;;26.50;67.70;;;;;;5159605;22;20550;-71
2022/02/22 07:45:16;;;;;;;0.98;0.55;;;26.50;67.70;;;;;;5156038;22;20269;-70
2022/02/22 07:47:39;;;;;;;1.95;0.50;;;26.50;67.70;;;;;;5165505;22;20015;-71
2022/02/22 07:50:04;;;;;;;1.70;0.55;;;26.50;67.70;;;;;;5129213;22;20011;-71
2022/02/22 07:52:31;;;;;;;2.50;0.68;;;26.50;67.60;;;;;;5159619;22;20019;-71
2022/02/22 07:54:54;;;;;;;1.42;0.50;;;26.50;67.10;;;;;;5162639;22;20041;-70
2022/02/22 07:57:16;;;;;;;2.03;0.63;;;26.50;67.70;;;;;;5159368;22;20239;-71
2022/02/22 07:59:39;;;;;;;1.55;0.85;;;26.50;67.60;;;;;;5164516;22;20112;-71
2022/02/22 08:02:01;;;;;;;1.23;0.60;;;26.50;67.60;;;;;;5144203;22;20016;-73
2022/02/22 08:04:26;;;;;;;1.52;0.60;;;26.40;67.50;;;;;;5169048;22;20026;-73
2022/02/22 08:06:49;;;;;;;3.00;0.73;;;26.40;67.50;;;;;;5168526;22;20015;-73
2022/02/22 08:09:11;;;;;;;1.30;0.70;;;26.40;67.50;;;;;;5174242;22;20007;-72
2022/02/22 08:11:34;;;;;;;0.40;0.40;;;26.40;67.50;;;;;;5194207;22;20043;-72
2022/02/22 08:13:59;;;;;;;0.80;0.50;;;26.40;67.50;;;;;;5191921;22;20611;-72
2022/02/22 08:16:22;;;;;;;1.90;0.60;;;26.40;67.50;;;;;;5187481;22;20098;-72
2022/02/22 08:18:44;;;;;;;1.27;0.30;;;26.40;67.50;;;;;;5192272;22;20106;-73
2022/02/22 08:21:07;;;;;;;1.45;0.60;;;26.30;67.40;;;;;;5151811;22;20018;-72
2022/02/22 08:23:31;;;;;;;1.02;0.50;;;26.30;67.50;;;;;;5152362;22;20901;-72
2022/02/22 08:25:54;;;;;;;0.55;0.52;;;26.30;67.40;;;;;;5147967;22;20136;-72
2022/02/22 08:28:16;;;;;;;0.93;0.60;;;26.30;67.50;;;;;;5144034;22;20022;-72
2022/02/22 08:30:39;;;;;;;0.77;0.50;;;26.30;67.40;;;;;;5152514;22;20955;-72
2022/02/22 08:33:02;;;;;;;0.90;0.60;;;26.30;67.50;;;;;;5144038;22;20015;-71
2022/02/22 08:35:24;;;;;;;0.60;0.32;;;26.30;67.50;;;;;;5146075;22;20015;-71
2022/02/22 08:37:50;;;;;;;0.93;0.65;;;26.20;67.40;;;;;;5152585;22;20027;-72
2022/02/22 08:40:13;;;;;;;0.80;0.75;;;26.20;67.50;;;;;;5145459;22;20589;-70
2022/02/22 08:42:35;;;;;;;0.55;0.55;;;26.20;67.40;;;;;;5146457;22;20114;-70
2022/02/22 08:44:58;;;;;;;1.00;0.70;;;26.20;68.20;;;;;;5121484;22;20126;-70
2022/02/22 08:47:20;;;;;;;1.48;0.47;;;26.20;67.40;;;;;;5147734;22;20019;-71
2022/02/22 08:49:45;;;;;;;1.58;0.73;;;26.20;67.50;;;;;;5149018;22;20080;-71
2022/02/22 08:52:08;;;;;;;1.35;0.63;;;26.20;67.50;;;;;;5150339;22;20011;-70
2022/02/22 08:54:31;;;;;;;0.73;0.70;;;26.10;67.50;;;;;;5145460;22;20103;-70
2022/02/22 08:56:53;;;;;;;1.40;0.63;;;26.10;67.40;;;;;;5148538;22;20015;-70
2022/02/22 08:59:17;;;;;;;0.77;0.70;;;26.10;67.40;;;;;;5151210;22;20736;-72
2022/02/22 09:01:40;;;;;;;2.00;0.98;;;26.10;67.50;;;;;;5145381;22;20033;-70
2022/02/22 09:04:02;;;;;;;2.13;0.77;;;26.10;67.40;;;;;;5147456;22;20579;-71
2022/02/22 09:06:25;;;;;;;0.52;0.50;;;26.10;67.30;;;;;;5153307;22;20893;-70
2022/02/22 09:08:48;;;;;;;0.93;0.60;;;26.10;67.70;;;;;;5147946;22;20026;-71
2022/02/22 09:11:10;;;;;;;1.23;0.50;;;26.10;67.40;;;;;;5151566;22;20072;-70
2022/02/22 09:13:33;;;;;;;2.47;0.77;;;26.10;67.60;;;;;;5156038;22;20023;-70
2022/02/22 09:15:55;;;;;;;1.48;0.90;;;26.10;67.50;;;;;;5148314;22;20478;-69
2022/02/22 09:18:18;;;;;;;1.02;0.68;;;26.00;67.40;;;;;;5149698;22;21354;-70
2022/02/22 09:20:41;;;;;;;2.00;0.95;;;26.00;67.40;;;;;;5154967;22;20042;-71
2022/02/22 09:23:04;;;;;;;1.60;0.80;;;26.00;67.50;;;;;;5148333;22;20023;-71
2022/02/22 09:25:32;;;;;;;3.03;0.85;;;26.00;67.60;;;;;;5119278;22;20012;-70
2022/02/22 09:27:55;;;;;;;1.80;0.90;;;26.00;67.50;;;;;;5154900;22;20021;-70
2022/02/22 09:30:20;;;;;;;1.10;0.60;;;26.00;67.60;;;;;;5149957;22;20019;-70
2022/02/22 09:32:43;;;;;;;1.55;1.00;;;26.00;67.60;;;;;;5157446;22;20870;-70
2022/02/22 09:35:07;;;;;;;2.05;0.95;;;26.00;67.60;;;;;;5151381;22;20375;-71
2022/02/22 09:37:30;;;;;;;3.20;0.95;;;26.00;67.50;;;;;;5150110;22;20478;-70
2022/02/22 09:39:52;;;;;;;1.95;0.90;;;26.00;67.50;;;;;;5157158;22;20023;-69
2022/02/22 09:42:15;;;;;;;1.05;0.70;;;25.90;67.50;;;;;;5153492;22;20071;-70
2022/02/22 09:44:38;;;;;;;1.55;0.95;;;25.90;67.50;;;;;;5149559;22;20161;-70
2022/02/22 09:47:02;;;;;;;3.08;0.95;;;25.90;67.50;;;;;;5160358;22;20312;-70
2022/02/22 09:49:24;;;;;;;2.15;0.90;;;25.90;67.60;;;;;;5155776;22;20046;-70
2022/02/22 09:51:48;;;;;;;1.95;1.00;;;25.90;67.50;;;;;;5154706;22;20018;-70
2022/02/22 09:54:11;;;;;;;1.55;1.20;;;25.90;67.70;;;;;;5158204;22;20015;-70
2022/02/22 09:56:40;;;;;;;1.60;0.93;;;25.90;67.70;;;;;;5156078;22;20015;-73
2022/02/22 09:59:03;;;;;;;1.75;1.00;;;25.90;67.60;;;;;;5154183;22;20015;-70
2022/02/22 10:01:28;;;;;;;1.08;0.85;;;25.90;67.60;;;;;;5133382;22;20813;-70
2022/02/22 10:04:00;;;;;;;2.67;1.10;;;25.80;67.70;;;;;;5155541;22;20048;-70
2022/02/22 10:06:25;;;;;;;1.30;0.85;;;25.80;67.60;;;;;;5161553;22;20423;-69
2022/02/22 10:08:54;;;;;;;1.58;0.80;;;25.80;67.80;;;;;;5149796;22;20030;-71
2022/02/22 10:11:17;;;;;;;2.38;1.10;;;25.80;67.70;;;;;;5128943;22;20015;-71
2022/02/22 10:13:46;;;;;;;1.30;0.52;;;25.80;67.70;;;;;;5153425;22;20405;-71
2022/02/22 10:16:17;;;;;;;1.75;0.80;;;25.80;67.70;;;;;;5162047;22;20011;-69
2022/02/22 10:18:49;;;;;;;1.13;0.80;;;25.70;67.70;;;;;;5157810;22;20533;-70
2022/02/22 10:21:12;;;;;;;1.50;1.08;;;25.80;67.80;;;;;;5163215;22;20019;-69
2022/02/22 10:23:34;;;;;;;1.58;1.00;;;25.80;67.70;;;;;;5156420;22;20019;-72
2022/02/22 10:25:59;;;;;;;0.98;0.80;;;25.70;67.70;;;;;;5153825;22;20011;-72
2022/02/22 10:28:21;;;;;;;1.15;0.70;;;25.70;67.80;;;;;;5162806;22;20394;-71
2022/02/22 10:30:44;;;;;;;1.33;0.70;;;25.70;67.80;;;;;;5152003;22;20015;-72
2022/02/22 10:33:26;;;;;;;1.45;0.93;;;25.70;67.80;;;;;;5152019;22;20102;-71
2022/02/22 10:35:51;;;;;;;1.73;0.80;;;25.70;68.20;;;;;;5152255;22;20011;-72
2022/02/22 10:38:18;;;;;;;1.83;1.17;;;25.70;68.00;;;;;;5161671;22;20474;-72
2022/02/22 10:40:41;;;;;;;1.67;1.00;;;25.70;67.90;;;;;;5156300;22;20096;-72
2022/02/22 10:43:03;;;;;;;0.98;0.70;;;25.70;67.80;;;;;;5162167;22;20007;-72
2022/02/22 10:45:26;;;;;;;1.35;0.90;;;25.70;67.90;;;;;;5165186;22;20027;-71
2022/02/22 10:47:49;;;;;;;2.58;0.80;;;25.70;68.50;;;;;;5161659;22;20015;-71
2022/02/22 10:50:12;;;;;;;1.45;0.77;;;25.70;68.00;;;;;;5165843;22;20016;-70
2022/02/22 10:52:34;;;;;;;1.60;0.95;;;25.70;68.00;;;;;;5163588;22;20011;-69
2022/02/22 10:55:01;;;;;;;1.75;0.88;;;25.70;68.00;;;;;;5157838;22;20026;-70
2022/02/22 10:57:23;;;;;;;1.80;0.70;;;25.60;68.00;;;;;;5165043;22;20065;-69
2022/02/22 10:59:48;;;;;;;1.35;0.73;;;25.60;67.90;;;;;;5163140;22;20054;-70
2022/02/22 11:02:11;;;;;;;1.48;0.82;;;25.60;68.10;;;;;;5156861;22;20023;-71
2022/02/22 11:04:35;;;;;;;1.25;0.73;;;25.60;68.10;;;;;;5162101;22;20083;-71
2022/02/22 11:06:57;;;;;;;0.77;0.60;;;25.60;68.10;;;;;;5162741;22;20019;-71
2022/02/22 11:09:22;;;;;;;0.90;0.68;;;25.60;68.10;;;;;;5156455;22;20007;-69
2022/02/22 11:11:51;;;;;;;0.90;0.63;;;25.60;68.00;;;;;;5153577;22;20275;-71
2022/02/22 11:14:27;;;;;;;1.52;0.82;;;25.60;68.20;;;;;;5158917;22;20076;-72
2022/02/22 11:16:55;;;;;;;1.25;0.80;;;25.60;68.10;;;;;;5162514;22;20051;-72
2022/02/22 11:19:33;;;;;;;1.83;0.88;;;25.60;68.20;;;;;;5162664;22;20403;-71
2022/02/22 11:21:57;;;;;;;0.80;0.75;;;25.60;68.10;;;;;;5162480;22;20358;-72
2022/02/22 11:24:21;;;;;;;1.45;0.85;;;25.60;68.20;;;;;;5161805;22;20015;-72
2022/02/22 11:26:57;;;;;;;0.93;0.70;;;25.50;68.10;;;;;;5132785;22;20016;-72
2022/02/22 11:29:22;;;;;;;1.25;0.80;;;25.60;68.50;;;;;;5163299;22;20011;-72
2022/02/22 11:31:57;;;;;;;0.88;0.60;;;25.50;68.40;;;;;;5127268;22;20688;-72
2022/02/22 11:34:46;;;;;;;2.08;1.00;;;25.50;68.10;;;;;;5164198;22;20430;-72
2022/02/22 11:37:17;;;;;;;1.65;0.85;;;25.50;68.20;;;;;;5168526;22;20019;-72
2022/02/22 11:39:46;;;;;;;1.30;0.70;;;25.50;68.20;;;;;;5157567;22;20030;-72
2022/02/22 11:42:31;;;;;;;0.88;0.50;;;25.50;68.20;;;;;;5133151;22;20050;-71
2022/02/22 11:45:04;;;;;;;0.95;0.75;;;25.50;68.20;;;;;;5168694;22;20018;-72
2022/02/22 11:47:30;;;;;;;1.42;0.80;;;25.50;69.00;;;;;;5161051;22;21152;-72
2022/02/22 11:49:56;;;;;;;0.68;0.52;;;25.50;68.40;;;;;;5159031;22;20015;-70
2022/02/22 11:52:19;;;;;;;2.00;0.60;;;25.50;68.40;;;;;;5161452;22;20015;-72
2022/02/22 11:54:42;;;;;;;0.80;0.60;;;25.50;68.40;;;;;;5166821;22;20015;-70
2022/02/22 11:57:07;;;;;;;1.65;0.85;;;25.50;69.10;;;;;;5159638;22;20977;-72
2022/02/22 11:59:33;;;;;;;1.65;0.63;;;25.50;68.40;;;;;;5162417;22;20026;-71
2022/02/22 12:01:59;;;;;;;1.38;0.73;;;25.50;68.40;;;;;;5166529;22;20577;-72
2022/02/22 12:04:28;;;;;;;0.88;0.75;;;25.40;68.50;;;;;;5164239;22;20539;-71
2022/02/22 12:06:53;;;;;;;1.50;0.73;;;25.50;68.50;;;;;;5170629;22;20503;-70
2022/02/22 12:09:18;;;;;;;0.85;0.70;;;25.40;68.40;;;;;;5162830;22;20038;-71
2022/02/22 12:11:40;;;;;;;0.93;0.50;;;25.40;68.50;;;;;;5168347;22;20026;-71
2022/02/22 12:14:11;;;;;;;0.70;0.60;;;25.40;68.50;;;;;;5185436;22;20630;-70
2022/02/22 12:16:34;;;;;;;1.05;0.70;;;25.40;68.40;;;;;;5185882;22;20431;-72
2022/02/22 12:19:07;;;;;;;0.73;0.50;;;25.40;68.60;;;;;;5185621;22;20044;-71
2022/02/22 12:21:34;;;;;;;1.42;0.85;;;25.40;68.60;;;;;;5203085;22;20377;-72
2022/02/22 12:23:57;;;;;;;0.82;0.60;;;25.40;68.60;;;;;;5180545;22;20334;-73
2022/02/22 12:26:22;;;;;;;0.68;0.45;;;25.40;68.60;;;;;;5175651;22;20046;-72
2022/02/22 12:28:48;;;;;;;2.53;0.82;;;25.40;68.60;;;;;;5146120;22;20023;-72
2022/02/22 12:31:54;;;;;;;1.42;0.73;;;25.40;68.60;;;;;;5147289;22;20524;-73
2022/02/22 12:34:19;;;;;;;1.25;0.60;;;25.40;68.50;;;;;;5162896;22;20030;-72
2022/02/22 12:36:47;;;;;;;1.30;0.50;;;25.40;68.60;;;;;;5162577;22;20015;-73
2022/02/22 12:39:14;;;;;;;1.00;0.45;;;25.40;68.70;;;;;;5163562;22;20671;-72